Time;durP1;ratioP1;P1;durP2;ratioP2;P2;SDS_P1;SDS_P2;PMS_P1;PMS_P2;Temp;Humidity;BMP_temperature;BMP_pressure;BME280_temperature;BME280_humidity;BME280_pressure;Samples;Min_cycle;Max_cycle;Signal;HPM_P1;HPM_P2
2021/04/30 00:01:06;;;;;;;9.40;6.30;;;11.80;99.90;;;;;;5075717;28;20115;-75
2021/04/30 00:03:31;;;;;;;7.78;6.13;;;11.80;99.90;;;;;;5077732;28;20069;-75
2021/04/30 00:05:57;;;;;;;9.15;5.90;;;11.80;99.90;;;;;;5077666;28;20071;-75
2021/04/30 00:08:23;;;;;;;9.60;5.82;;;11.80;99.90;;;;;;5077638;28;20037;-74
2021/04/30 00:10:49;;;;;;;12.27;6.38;;;11.80;99.90;;;;;;5077690;28;20044;-75
2021/04/30 00:13:15;;;;;;;9.98;6.18;;;11.80;99.90;;;;;;5077215;28;20048;-75
2021/04/30 00:15:41;;;;;;;10.10;6.38;;;11.80;99.90;;;;;;5078190;28;20067;-74
2021/04/30 00:18:07;;;;;;;11.35;6.13;;;11.80;99.90;;;;;;5077407;28;20032;-75
2021/04/30 00:20:39;;;;;;;9.48;6.05;;;11.70;99.90;;;;;;5077758;28;20044;-75
2021/04/30 00:23:12;;;;;;;10.88;6.70;;;11.70;99.90;;;;;;5077331;28;20043;-75
2021/04/30 00:25:41;;;;;;;10.23;6.88;;;11.70;99.90;;;;;;5077585;28;20484;-74
2021/04/30 00:28:07;;;;;;;8.25;6.55;;;11.80;99.90;;;;;;5077179;28;20033;-75
2021/04/30 00:30:35;;;;;;;12.70;6.55;;;11.80;99.90;;;;;;5077137;28;20052;-75
2021/04/30 00:33:01;;;;;;;8.25;6.57;;;11.80;99.90;;;;;;5077411;28;20042;-74
2021/04/30 00:35:27;;;;;;;9.35;7.50;;;11.80;99.90;;;;;;5077384;28;20048;-75
2021/04/30 00:37:53;;;;;;;11.10;7.25;;;11.90;99.90;;;;;;5077284;28;20033;-75
2021/04/30 00:40:18;;;;;;;9.77;7.78;;;11.90;99.90;;;;;;5077704;28;20051;-75
2021/04/30 00:42:44;;;;;;;11.35;8.48;;;11.90;99.90;;;;;;5077160;28;20426;-75
2021/04/30 00:45:16;;;;;;;10.27;8.15;;;12.00;99.90;;;;;;5077024;28;20051;-75
2021/04/30 00:47:42;;;;;;;13.35;8.23;;;12.00;99.90;;;;;;5077452;28;20028;-75
2021/04/30 00:50:13;;;;;;;13.88;7.30;;;12.00;99.90;;;;;;5077214;28;20545;-75
2021/04/30 00:52:39;;;;;;;11.10;6.72;;;11.90;99.90;;;;;;5076545;28;20491;-75
2021/04/30 00:55:07;;;;;;;9.15;6.68;;;11.90;99.90;;;;;;5077045;28;20044;-75
2021/04/30 00:57:35;;;;;;;10.43;7.03;;;11.90;99.90;;;;;;5076948;28;20040;-75
2021/04/30 01:00:02;;;;;;;9.13;6.90;;;11.80;99.90;;;;;;5076806;28;20048;-75
2021/04/30 01:02:28;;;;;;;8.70;7.30;;;11.80;99.90;;;;;;5077127;28;20090;-74
2021/04/30 01:04:54;;;;;;;8.90;7.25;;;11.70;99.90;;;;;;5075712;28;20127;-75
2021/04/30 01:07:20;;;;;;;12.70;7.80;;;11.70;99.90;;;;;;5077059;28;20036;-75
2021/04/30 01:09:46;;;;;;;12.43;8.18;;;11.70;99.90;;;;;;5077148;28;20418;-75
2021/04/30 01:12:13;;;;;;;12.23;7.97;;;11.70;99.90;;;;;;5076251;28;20078;-75
2021/04/30 01:14:39;;;;;;;9.73;8.48;;;11.70;99.90;;;;;;5076440;28;20040;-75
2021/04/30 01:17:05;;;;;;;11.75;8.77;;;11.60;99.90;;;;;;5076109;28;20437;-75
2021/04/30 01:19:31;;;;;;;11.07;8.30;;;11.50;99.90;;;;;;5077026;28;20402;-75
2021/04/30 01:21:58;;;;;;;10.98;8.70;;;11.50;99.90;;;;;;5076307;28;20062;-75
2021/04/30 01:24:24;;;;;;;10.20;9.20;;;11.30;99.90;;;;;;5075968;28;20049;-75
2021/04/30 01:26:51;;;;;;;12.68;9.35;;;11.20;99.90;;;;;;5076088;28;20033;-75
2021/04/30 01:29:17;;;;;;;10.55;9.50;;;11.10;99.90;;;;;;5075396;28;20075;-75
2021/04/30 01:31:44;;;;;;;14.75;10.10;;;11.20;99.90;;;;;;5075804;28;20041;-75
2021/04/30 01:34:10;;;;;;;13.52;9.35;;;11.20;99.90;;;;;;5075891;28;20514;-75
2021/04/30 01:36:37;;;;;;;12.10;8.93;;;11.10;99.90;;;;;;5075969;28;20040;-75
2021/04/30 01:39:06;;;;;;;10.00;7.72;;;11.00;99.90;;;;;;5076084;28;20045;-75
2021/04/30 01:41:34;;;;;;;8.88;7.55;;;11.00;99.90;;;;;;5075783;28;20032;-75
2021/04/30 01:44:00;;;;;;;9.10;7.00;;;10.90;99.90;;;;;;5076094;28;20173;-75
2021/04/30 01:46:26;;;;;;;7.45;6.75;;;11.00;99.90;;;;;;5075434;28;20039;-75
2021/04/30 01:48:52;;;;;;;7.85;6.28;;;11.00;99.90;;;;;;5075760;28;20066;-75
2021/04/30 01:51:18;;;;;;;7.45;6.25;;;11.00;99.90;;;;;;5075326;28;20029;-75
2021/04/30 01:53:44;;;;;;;8.82;7.05;;;10.90;99.90;;;;;;5075250;28;20094;-75
2021/04/30 01:56:12;;;;;;;7.90;6.43;;;10.90;99.90;;;;;;5075333;28;20060;-75
2021/04/30 01:58:39;;;;;;;7.40;6.20;;;10.90;99.90;;;;;;5076195;28;20032;-75
2021/04/30 02:01:05;;;;;;;6.90;6.03;;;10.90;99.90;;;;;;5076049;28;20036;-75
2021/04/30 02:03:31;;;;;;;6.32;5.60;;;11.00;99.90;;;;;;5075411;28;20036;-75
2021/04/30 02:05:57;;;;;;;7.15;6.45;;;10.90;99.90;;;;;;5075379;28;20040;-75
2021/04/30 02:08:24;;;;;;;7.20;6.07;;;11.00;99.90;;;;;;5075412;28;20036;-75
2021/04/30 02:10:50;;;;;;;6.22;5.38;;;10.90;99.90;;;;;;5075619;28;20068;-75
2021/04/30 02:13:16;;;;;;;5.85;5.25;;;11.00;99.90;;;;;;5075016;28;20064;-75
2021/04/30 02:15:48;;;;;;;6.43;5.10;;;10.90;99.90;;;;;;5075026;28;20040;-75
2021/04/30 02:18:14;;;;;;;6.13;4.95;;;11.00;99.90;;;;;;5075382;28;20036;-75
2021/04/30 02:20:41;;;;;;;4.35;3.95;;;10.90;99.90;;;;;;5075383;28;20043;-75
2021/04/30 02:23:07;;;;;;;6.00;4.63;;;10.90;99.90;;;;;;5074789;28;20037;-75
2021/04/30 02:25:33;;;;;;;5.68;4.60;;;10.90;99.90;;;;;;5075797;28;20041;-75
2021/04/30 02:28:01;;;;;;;4.25;3.85;;;10.90;99.90;;;;;;5075231;28;20032;-75
2021/04/30 02:30:28;;;;;;;5.60;4.45;;;10.90;99.90;;;;;;5075224;28;20068;-74
2021/04/30 02:32:55;;;;;;;4.80;4.40;;;10.80;99.90;;;;;;5074907;28;20045;-75
2021/04/30 02:35:25;;;;;;;5.00;4.03;;;10.80;99.90;;;;;;5074995;28;20075;-75
2021/04/30 02:37:52;;;;;;;5.20;4.20;;;10.70;99.90;;;;;;5075433;28;20041;-75
2021/04/30 02:40:21;;;;;;;4.78;4.28;;;10.80;99.90;;;;;;5075328;28;20044;-75
2021/04/30 02:42:47;;;;;;;4.55;3.95;;;10.70;99.90;;;;;;5075289;28;20150;-75
2021/04/30 02:45:15;;;;;;;3.03;2.83;;;10.70;99.90;;;;;;5074856;28;20040;-75
2021/04/30 02:47:45;;;;;;;7.03;4.00;;;10.60;99.90;;;;;;5074894;28;20060;-75
2021/04/30 02:50:13;;;;;;;3.67;3.37;;;10.60;99.90;;;;;;5075244;28;20480;-75
2021/04/30 02:52:39;;;;;;;4.18;3.55;;;10.60;99.90;;;;;;5075240;28;20258;-75
2021/04/30 02:55:05;;;;;;;6.22;3.22;;;10.50;99.90;;;;;;5074824;28;20040;-74
2021/04/30 02:57:32;;;;;;;5.30;3.45;;;10.50;99.90;;;;;;5074897;28;20043;-75
2021/04/30 02:59:59;;;;;;;3.00;2.70;;;10.50;99.90;;;;;;5074397;28;20040;-75
2021/04/30 03:02:25;;;;;;;3.08;2.28;;;10.60;99.90;;;;;;5074481;28;20036;-74
2021/04/30 03:04:52;;;;;;;1.77;1.65;;;10.60;99.90;;;;;;5074853;28;20048;-75
2021/04/30 03:07:18;;;;;;;2.47;2.10;;;10.60;99.90;;;;;;5074994;28;20067;-75
2021/04/30 03:09:44;;;;;;;4.88;2.40;;;10.60;99.90;;;;;;5075130;28;20044;-75
2021/04/30 03:12:09;;;;;;;3.20;1.80;;;10.60;99.90;;;;;;5073454;28;20038;-75
2021/04/30 03:14:35;;;;;;;2.30;2.10;;;10.50;99.90;;;;;;5074527;28;20094;-75
2021/04/30 03:17:01;;;;;;;2.30;1.98;;;10.50;99.90;;;;;;5074659;28;20072;-75
2021/04/30 03:19:27;;;;;;;4.47;1.95;;;10.50;99.90;;;;;;5074743;28;20041;-75
2021/04/30 03:21:53;;;;;;;3.45;2.10;;;10.50;99.90;;;;;;5074666;28;20036;-75
2021/04/30 03:24:19;;;;;;;2.13;1.70;;;10.50;99.90;;;;;;5074669;28;20055;-75
2021/04/30 03:26:44;;;;;;;1.63;1.52;;;10.50;99.90;;;;;;5074591;28;20140;-75
2021/04/30 03:29:10;;;;;;;1.92;1.70;;;10.50;99.90;;;;;;5074737;28;20511;-75
2021/04/30 03:31:36;;;;;;;4.53;1.85;;;10.50;99.90;;;;;;5075108;28;20046;-75
2021/04/30 03:34:02;;;;;;;1.60;1.40;;;10.50;99.90;;;;;;5074467;28;20135;-75
2021/04/30 03:36:28;;;;;;;2.90;1.60;;;10.50;99.90;;;;;;5077094;28;20062;-75
2021/04/30 03:38:54;;;;;;;1.48;1.38;;;10.50;99.90;;;;;;5078310;28;20044;-75
2021/04/30 03:41:20;;;;;;;2.33;1.27;;;10.60;99.90;;;;;;5078606;28;20033;-75
2021/04/30 03:43:46;;;;;;;2.00;1.50;;;10.60;99.90;;;;;;5078252;28;20037;-75
2021/04/30 03:46:13;;;;;;;2.88;1.40;;;10.60;99.90;;;;;;5078139;28;20040;-75
2021/04/30 03:48:39;;;;;;;3.88;1.50;;;10.60;99.90;;;;;;5078481;28;20047;-75
2021/04/30 03:51:05;;;;;;;1.42;1.33;;;10.60;99.90;;;;;;5078309;28;20141;-75
2021/04/30 03:53:31;;;;;;;1.25;1.05;;;10.50;99.90;;;;;;5078078;28;20036;-75
2021/04/30 03:55:57;;;;;;;1.63;1.20;;;10.50;99.90;;;;;;5078185;28;20041;-75
2021/04/30 03:58:23;;;;;;;8.05;2.03;;;10.40;99.90;;;;;;5077861;28;20032;-75
2021/04/30 04:00:48;;;;;;;5.20;1.30;;;10.50;99.90;;;;;;5078026;28;20093;-75
2021/04/30 04:03:14;;;;;;;2.83;1.60;;;10.50;99.90;;;;;;5077646;28;20471;-75
2021/04/30 04:05:40;;;;;;;1.40;1.30;;;10.50;99.90;;;;;;5077732;28;20040;-75
2021/04/30 04:08:08;;;;;;;2.13;1.30;;;10.40;99.90;;;;;;5077655;28;20037;-75
2021/04/30 04:10:37;;;;;;;2.75;1.30;;;10.50;99.90;;;;;;5078742;28;20109;-75
2021/04/30 04:13:17;;;;;;;1.92;1.27;;;10.50;99.90;;;;;;5077654;28;20040;-76
2021/04/30 04:15:44;;;;;;;1.45;1.05;;;10.40;99.90;;;;;;5076986;28;20052;-75
2021/04/30 04:18:10;;;;;;;1.30;1.20;;;10.40;99.90;;;;;;5077456;28;20040;-75
2021/04/30 04:20:36;;;;;;;1.23;1.13;;;10.40;99.90;;;;;;5078017;28;20032;-75
2021/04/30 04:23:02;;;;;;;2.03;1.25;;;10.30;99.90;;;;;;5077109;28;20123;-75
2021/04/30 04:25:28;;;;;;;1.48;1.38;;;10.30;99.90;;;;;;5077556;28;20040;-75
2021/04/30 04:27:54;;;;;;;1.80;1.38;;;10.30;99.90;;;;;;5077255;28;20058;-75
2021/04/30 04:30:20;;;;;;;3.45;1.65;;;10.20;99.90;;;;;;5076840;28;20033;-75
2021/04/30 04:32:47;;;;;;;1.85;1.73;;;10.30;99.90;;;;;;5077438;28;20124;-75
2021/04/30 04:35:13;;;;;;;3.15;1.92;;;10.20;99.90;;;;;;5076755;28;20040;-75
2021/04/30 04:37:39;;;;;;;1.67;1.58;;;10.30;99.90;;;;;;5076815;28;20503;-75
2021/04/30 04:40:05;;;;;;;1.98;1.77;;;10.20;99.90;;;;;;5077070;28;20071;-75
2021/04/30 04:42:31;;;;;;;7.00;4.20;;;10.30;99.90;;;;;;5076786;28;20040;-75
2021/04/30 04:44:57;;;;;;;3.95;2.42;;;10.30;99.90;;;;;;5076862;28;20456;-75
2021/04/30 04:47:23;;;;;;;3.45;2.08;;;10.30;99.90;;;;;;5076140;28;20082;-75
2021/04/30 04:49:49;;;;;;;5.75;2.10;;;10.40;99.90;;;;;;5077093;28;20041;-75
2021/04/30 04:52:14;;;;;;;2.53;2.00;;;10.30;99.90;;;;;;5076863;28;20047;-75
2021/04/30 04:54:40;;;;;;;5.32;1.80;;;10.30;99.90;;;;;;5076628;28;20078;-75
2021/04/30 04:57:06;;;;;;;2.42;1.80;;;10.20;99.90;;;;;;5076819;28;20368;-75
2021/04/30 04:59:32;;;;;;;1.65;1.35;;;10.20;99.90;;;;;;5076536;28;20040;-75
2021/04/30 05:01:58;;;;;;;3.45;1.75;;;10.20;99.90;;;;;;5076898;28;20490;-75
2021/04/30 05:04:24;;;;;;;4.82;1.98;;;10.20;99.90;;;;;;5076691;28;20050;-75
2021/04/30 05:06:49;;;;;;;2.38;1.33;;;10.20;99.90;;;;;;5076256;28;20125;-75
2021/04/30 05:09:15;;;;;;;4.80;1.90;;;10.30;99.90;;;;;;5076607;28;20167;-75
2021/04/30 05:11:41;;;;;;;5.60;3.83;;;10.20;99.90;;;;;;5076518;28;20369;-75
2021/04/30 05:14:07;;;;;;;9.35;5.53;;;10.20;99.90;;;;;;5076237;28;20447;-75
2021/04/30 05:16:33;;;;;;;5.80;3.72;;;10.20;99.90;;;;;;5076541;28;20037;-75
2021/04/30 05:18:58;;;;;;;2.35;1.60;;;10.30;99.90;;;;;;5076984;28;20407;-75
2021/04/30 05:21:24;;;;;;;2.10;1.83;;;10.30;99.90;;;;;;5076046;28;20040;-75
2021/04/30 05:23:50;;;;;;;3.45;3.15;;;10.30;99.90;;;;;;5076311;28;20478;-75
2021/04/30 05:26:16;;;;;;;2.58;1.52;;;10.30;99.90;;;;;;5076205;28;20032;-75
2021/04/30 05:28:42;;;;;;;1.60;1.50;;;10.20;99.90;;;;;;5076068;28;20097;-75
2021/04/30 05:31:08;;;;;;;1.70;1.50;;;10.30;99.90;;;;;;5076176;28;20033;-75
2021/04/30 05:33:34;;;;;;;3.00;1.45;;;10.30;99.90;;;;;;5075682;28;20542;-75
2021/04/30 05:35:59;;;;;;;3.05;1.92;;;10.30;99.90;;;;;;5076065;28;20094;-75
2021/04/30 05:38:25;;;;;;;3.20;1.90;;;10.30;99.90;;;;;;5075873;28;20044;-75
2021/04/30 05:40:51;;;;;;;2.38;1.38;;;10.40;99.90;;;;;;5076515;28;20164;-75
2021/04/30 05:43:17;;;;;;;4.85;3.55;;;10.40;99.90;;;;;;5075849;28;20048;-75
2021/04/30 05:45:44;;;;;;;6.43;3.70;;;10.40;99.90;;;;;;5075679;28;20495;-75
2021/04/30 05:48:10;;;;;;;2.08;1.88;;;10.40;99.90;;;;;;5075387;28;20048;-78
2021/04/30 05:50:36;;;;;;;2.25;1.90;;;10.40;99.90;;;;;;5075773;28;20021;-77
2021/04/30 05:53:02;;;;;;;2.08;1.80;;;10.40;99.90;;;;;;5075650;28;20046;-77
2021/04/30 05:55:29;;;;;;;1.77;1.67;;;10.40;99.90;;;;;;5074358;28;20055;-77
2021/04/30 05:57:55;;;;;;;2.28;1.80;;;10.40;99.90;;;;;;5072720;28;20040;-77
2021/04/30 06:00:21;;;;;;;2.42;1.90;;;10.40;99.90;;;;;;5073786;28;20414;-77
2021/04/30 06:02:47;;;;;;;2.08;1.88;;;10.40;99.90;;;;;;5074968;28;20024;-77
2021/04/30 06:05:13;;;;;;;1.90;1.80;;;10.40;99.90;;;;;;5075159;28;20043;-77
2021/04/30 06:07:39;;;;;;;2.05;1.90;;;10.40;99.90;;;;;;5075038;28;20032;-77
2021/04/30 06:10:06;;;;;;;2.97;2.10;;;10.40;99.90;;;;;;5075039;28;20044;-77
2021/04/30 06:12:32;;;;;;;2.25;1.63;;;10.50;99.90;;;;;;5074922;28;20063;-77
2021/04/30 06:14:58;;;;;;;2.28;2.08;;;10.40;99.90;;;;;;5073051;28;20083;-77
2021/04/30 06:17:24;;;;;;;1.90;1.80;;;10.40;99.90;;;;;;5073381;28;20051;-77
2021/04/30 06:19:50;;;;;;;2.38;2.17;;;10.40;99.90;;;;;;5073493;28;20040;-77
2021/04/30 06:22:16;;;;;;;2.75;2.03;;;10.50;99.90;;;;;;5073839;28;20067;-77
2021/04/30 06:24:42;;;;;;;2.50;2.10;;;10.40;99.90;;;;;;5073352;28;20043;-77
2021/04/30 06:27:08;;;;;;;4.85;2.70;;;10.50;99.90;;;;;;5074150;28;20036;-77
2021/04/30 06:29:34;;;;;;;2.97;2.45;;;10.40;99.90;;;;;;5073078;28;20060;-77
2021/04/30 06:32:00;;;;;;;3.60;2.65;;;10.40;99.90;;;;;;5074581;28;20032;-77
2021/04/30 06:34:26;;;;;;;2.65;2.45;;;10.50;99.90;;;;;;5074832;28;20135;-77
2021/04/30 06:36:53;;;;;;;2.97;2.78;;;10.50;99.90;;;;;;5074690;28;20036;-77
2021/04/30 06:39:21;;;;;;;3.15;2.67;;;10.60;99.90;;;;;;5074913;28;20129;-77
2021/04/30 06:41:46;;;;;;;3.10;2.85;;;10.60;99.90;;;;;;5074298;28;20048;-77
2021/04/30 06:44:12;;;;;;;5.78;2.63;;;10.60;99.90;;;;;;5071963;28;20407;-77
2021/04/30 06:46:39;;;;;;;4.03;3.63;;;10.70;99.90;;;;;;5072869;28;20033;-78
2021/04/30 06:49:05;;;;;;;3.25;2.85;;;10.70;99.90;;;;;;5073684;28;20093;-77
2021/04/30 06:51:31;;;;;;;3.00;2.80;;;10.80;99.90;;;;;;5074208;28;20040;-77
2021/04/30 06:53:57;;;;;;;3.40;2.53;;;10.80;99.90;;;;;;5074185;28;20117;-77
2021/04/30 06:56:26;;;;;;;2.78;2.28;;;10.80;99.90;;;;;;5074473;28;20048;-77
2021/04/30 06:58:52;;;;;;;4.05;2.58;;;10.80;99.90;;;;;;5074469;28;20048;-77
2021/04/30 07:01:18;;;;;;;2.63;2.28;;;10.70;99.90;;;;;;5074746;28;20091;-77
2021/04/30 07:03:47;;;;;;;3.50;2.70;;;10.80;99.90;;;;;;5073163;28;20068;-77
2021/04/30 07:06:18;;;;;;;3.85;2.40;;;10.70;99.90;;;;;;5073104;28;20040;-77
2021/04/30 07:08:45;;;;;;;3.88;2.42;;;10.80;99.90;;;;;;5069664;28;20044;-77
2021/04/30 07:11:10;;;;;;;2.95;2.50;;;10.80;99.90;;;;;;5066479;28;20071;-78
2021/04/30 07:13:36;;;;;;;2.40;2.20;;;10.90;99.90;;;;;;5070081;28;20135;-78
2021/04/30 07:16:03;;;;;;;4.10;2.00;;;11.00;99.90;;;;;;5071700;28;20507;-77
2021/04/30 07:18:29;;;;;;;2.60;2.25;;;11.20;99.90;;;;;;5070143;28;20578;-77
2021/04/30 07:20:55;;;;;;;3.08;2.78;;;11.50;99.90;;;;;;5073028;28;20108;-78
2021/04/30 07:23:21;;;;;;;3.97;2.60;;;11.90;99.90;;;;;;5071761;28;20139;-77
2021/04/30 07:25:47;;;;;;;4.65;3.05;;;12.50;99.90;;;;;;5073788;28;20115;-77
2021/04/30 07:28:12;;;;;;;4.88;3.60;;;12.60;99.90;;;;;;5073104;28;20045;-77
2021/04/30 07:30:38;;;;;;;5.60;4.13;;;13.00;99.90;;;;;;5072868;28;20380;-77
2021/04/30 07:33:04;;;;;;;8.60;5.68;;;12.90;99.90;;;;;;5072615;28;20043;-77
2021/04/30 07:35:30;;;;;;;3.42;2.58;;;12.70;99.90;;;;;;5073470;28;20115;-77
2021/04/30 07:37:56;;;;;;;5.13;3.42;;;12.90;99.90;;;;;;5072375;28;20464;-77
2021/04/30 07:40:21;;;;;;;3.65;2.50;;;13.50;99.90;;;;;;5073708;28;20044;-78
2021/04/30 07:42:47;;;;;;;2.50;2.30;;;14.10;99.90;;;;;;5073026;28;20166;-77
2021/04/30 07:45:14;;;;;;;2.20;2.00;;;14.20;99.90;;;;;;5073039;28;20051;-77
2021/04/30 07:47:39;;;;;;;3.28;1.60;;;15.00;99.90;;;;;;5073439;28;20512;-77
2021/04/30 07:50:06;;;;;;;1.80;1.27;;;15.10;99.90;;;;;;5073095;28;20126;-77
2021/04/30 07:52:32;;;;;;;2.78;1.30;;;15.00;99.90;;;;;;5073425;28;20051;-78
2021/04/30 07:55:01;;;;;;;2.92;1.50;;;15.10;99.90;;;;;;5073521;28;20044;-77
2021/04/30 07:57:28;;;;;;;1.55;1.27;;;15.40;99.90;;;;;;5073248;28;20036;-77
2021/04/30 07:59:54;;;;;;;2.08;1.35;;;16.00;99.90;;;;;;5073883;28;20037;-77
2021/04/30 08:02:20;;;;;;;1.75;1.30;;;15.80;99.90;;;;;;5073611;28;20045;-77
2021/04/30 08:04:47;;;;;;;1.95;1.17;;;15.90;99.90;;;;;;5073855;28;20032;-77
2021/04/30 08:07:14;;;;;;;3.58;1.17;;;16.50;99.90;;;;;;5073088;28;20079;-77
2021/04/30 08:09:41;;;;;;;1.92;1.30;;;16.10;99.90;;;;;;5072818;28;20072;-77
2021/04/30 08:12:07;;;;;;;3.50;1.52;;;15.50;99.90;;;;;;5072421;28;20040;-78
2021/04/30 08:14:33;;;;;;;1.38;1.08;;;15.90;99.90;;;;;;5072106;28;20052;-79
2021/04/30 08:16:59;;;;;;;4.03;1.10;;;16.00;99.90;;;;;;5071713;28;20404;-78
2021/04/30 08:19:26;;;;;;;4.57;1.25;;;15.80;99.90;;;;;;5071278;28;20495;-78
2021/04/30 08:21:52;;;;;;;1.40;0.90;;;14.80;99.90;;;;;;5072109;28;20029;-78
2021/04/30 08:24:20;;;;;;;1.27;1.17;;;14.30;99.90;;;;;;5075472;28;20044;-77
2021/04/30 08:26:46;;;;;;;1.17;1.00;;;14.20;99.90;;;;;;5074529;28;20035;-78
2021/04/30 08:29:12;;;;;;;2.15;1.08;;;14.30;99.90;;;;;;5075062;28;20055;-77
2021/04/30 08:31:38;;;;;;;2.45;1.48;;;14.30;99.90;;;;;;5074558;28;20472;-77
2021/04/30 08:34:04;;;;;;;1.98;1.20;;;14.20;99.90;;;;;;5075300;28;20087;-77
2021/04/30 08:36:30;;;;;;;3.55;1.17;;;14.20;99.90;;;;;;5076131;28;20064;-77
2021/04/30 08:38:56;;;;;;;2.63;1.60;;;14.20;99.90;;;;;;5075145;28;20088;-78
2021/04/30 08:41:26;;;;;;;1.70;1.42;;;14.20;99.90;;;;;;5075609;28;20040;-77
2021/04/30 08:43:52;;;;;;;1.58;1.30;;;14.20;99.90;;;;;;5075801;28;20096;-77
2021/04/30 08:46:18;;;;;;;1.83;1.30;;;14.30;99.90;;;;;;5076535;28;20028;-77
2021/04/30 08:48:44;;;;;;;2.72;1.38;;;14.10;99.90;;;;;;5076402;28;20040;-78
2021/04/30 08:51:11;;;;;;;2.47;1.17;;;14.00;99.90;;;;;;5076496;28;20059;-77
2021/04/30 08:53:39;;;;;;;1.50;1.15;;;14.10;99.90;;;;;;5076702;28;20041;-77
2021/04/30 08:56:05;;;;;;;1.15;1.00;;;14.30;99.90;;;;;;5077025;28;20040;-77
2021/04/30 08:58:37;;;;;;;1.00;0.73;;;14.20;99.90;;;;;;5075599;28;20097;-77
2021/04/30 09:01:05;;;;;;;2.95;0.90;;;14.50;99.90;;;;;;5076231;28;20028;-77
2021/04/30 09:03:34;;;;;;;0.77;0.77;;;14.60;99.90;;;;;;5075787;28;20043;-77
2021/04/30 09:06:00;;;;;;;0.70;0.70;;;14.60;99.90;;;;;;5076893;28;20564;-77
2021/04/30 09:08:27;;;;;;;0.80;0.73;;;14.80;99.90;;;;;;5076546;28;20047;-77
2021/04/30 09:10:56;;;;;;;1.55;0.90;;;14.70;99.90;;;;;;5076571;28;20074;-77
2021/04/30 09:13:23;;;;;;;2.67;0.80;;;14.50;99.90;;;;;;5075750;28;20044;-77
2021/04/30 09:16:03;;;;;;;2.85;1.10;;;14.70;99.90;;;;;;5075890;28;20048;-77
2021/04/30 09:18:32;;;;;;;3.25;1.00;;;14.60;99.90;;;;;;5075628;28;20044;-76
2021/04/30 09:21:10;;;;;;;1.63;0.95;;;14.50;99.90;;;;;;5075578;28;20032;-77
2021/04/30 09:23:44;;;;;;;1.38;1.00;;;14.70;99.90;;;;;;5068970;28;20033;-77
2021/04/30 09:26:31;;;;;;;0.60;0.60;;;14.60;99.90;;;;;;5059156;28;20091;-76
2021/04/30 09:29:01;;;;;;;1.77;0.70;;;14.90;99.90;;;;;;5055658;28;20037;-76
2021/04/30 09:31:38;;;;;;;1.08;0.90;;;15.40;99.90;;;;;;5054879;28;20040;-76
2021/04/30 09:34:24;;;;;;;1.92;0.80;;;15.30;99.90;;;;;;5054320;28;20048;-77
2021/04/30 09:37:10;;;;;;;1.67;1.10;;;15.40;99.90;;;;;;5055154;28;20044;-77
2021/04/30 09:39:56;;;;;;;2.72;1.65;;;15.60;99.90;;;;;;5055347;28;20542;-77
2021/04/30 09:42:28;;;;;;;0.82;0.80;;;15.30;97.40;;;;;;5054642;28;20133;-77
2021/04/30 09:44:58;;;;;;;1.15;0.70;;;15.20;97.80;;;;;;5055725;28;20044;-76
2021/04/30 09:47:25;;;;;;;0.90;0.73;;;15.40;98.40;;;;;;5055635;28;20151;-77
2021/04/30 09:49:55;;;;;;;1.13;0.77;;;15.60;97.70;;;;;;5055381;28;20067;-77
2021/04/30 09:52:22;;;;;;;1.95;0.60;;;16.00;95.40;;;;;;5054862;28;20045;-76
2021/04/30 09:54:49;;;;;;;1.52;0.60;;;16.20;96.80;;;;;;5054313;28;20045;-77
2021/04/30 09:57:21;;;;;;;1.38;0.82;;;16.30;94.10;;;;;;5054362;28;20033;-75
2021/04/30 10:00:10;;;;;;;0.88;0.70;;;16.40;94.50;;;;;;5054866;28;20029;-76
2021/04/30 10:02:37;;;;;;;0.52;0.52;;;16.20;95.20;;;;;;5054494;28;20082;-76
2021/04/30 10:05:11;;;;;;;1.08;0.60;;;16.30;94.80;;;;;;5055409;28;20080;-75
2021/04/30 10:07:39;;;;;;;0.82;0.40;;;16.20;94.80;;;;;;5055390;28;20041;-75
2021/04/30 10:10:05;;;;;;;1.27;0.80;;;16.40;95.00;;;;;;5052488;28;20113;-75
2021/04/30 10:12:31;;;;;;;1.35;0.80;;;16.40;95.00;;;;;;5056477;28;20047;-75
2021/04/30 10:14:58;;;;;;;1.88;0.70;;;16.30;93.80;;;;;;5072815;28;20056;-75
2021/04/30 10:17:24;;;;;;;1.17;0.73;;;16.50;93.00;;;;;;5074663;28;20040;-75
2021/04/30 10:19:51;;;;;;;2.53;0.90;;;16.70;95.60;;;;;;5074951;28;20071;-75
2021/04/30 10:22:24;;;;;;;1.10;0.85;;;16.70;94.00;;;;;;5074441;28;20043;-75
2021/04/30 10:24:58;;;;;;;0.98;0.73;;;17.00;93.30;;;;;;5074775;28;20036;-75
2021/04/30 10:27:35;;;;;;;0.70;0.70;;;17.00;90.80;;;;;;5073871;28;20036;-75
2021/04/30 10:30:11;;;;;;;0.95;0.80;;;17.20;90.80;;;;;;5074568;28;20127;-75
2021/04/30 10:32:41;;;;;;;1.52;0.95;;;17.10;92.00;;;;;;5073712;28;20044;-75
2021/04/30 10:35:10;;;;;;;0.85;0.70;;;16.60;92.60;;;;;;5072734;28;20060;-75
2021/04/30 10:37:40;;;;;;;1.23;0.52;;;16.80;92.40;;;;;;5073212;28;20113;-76
2021/04/30 10:40:08;;;;;;;0.80;0.60;;;17.10;90.20;;;;;;5074050;28;20075;-76
2021/04/30 10:42:43;;;;;;;0.40;0.40;;;17.50;88.80;;;;;;5073287;28;20040;-75
2021/04/30 10:45:12;;;;;;;1.60;0.60;;;17.20;87.00;;;;;;5073501;28;20043;-76
2021/04/30 10:47:38;;;;;;;1.40;0.80;;;16.60;90.20;;;;;;5074332;28;20040;-75
2021/04/30 10:50:16;;;;;;;0.98;0.65;;;16.60;88.70;;;;;;5073822;28;20082;-76
2021/04/30 10:52:43;;;;;;;1.75;0.50;;;16.50;86.00;;;;;;5072317;28;20391;-76
2021/04/30 10:55:17;;;;;;;0.98;0.73;;;17.20;86.50;;;;;;5072289;28;20040;-76
2021/04/30 10:57:57;;;;;;;2.55;0.80;;;17.40;81.30;;;;;;5072961;28;20040;-76
2021/04/30 11:00:37;;;;;;;1.70;0.80;;;17.50;80.70;;;;;;5072038;28;20036;-77
2021/04/30 11:03:17;;;;;;;1.48;0.60;;;17.90;81.20;;;;;;5073567;28;20274;-77
2021/04/30 11:06:10;;;;;;;2.73;0.63;;;18.30;81.10;;;;;;5071686;28;20052;-76
2021/04/30 11:08:55;;;;;;;0.60;0.50;;;18.40;79.30;;;;;;5068676;28;20408;-76
2021/04/30 11:11:32;;;;;;;2.10;0.60;;;18.40;80.90;;;;;;5070082;28;20399;-77
2021/04/30 11:14:20;;;;;;;0.60;0.60;;;18.30;78.50;;;;;;5072564;28;20056;-76
2021/04/30 11:16:46;;;;;;;2.00;0.90;;;18.20;83.60;;;;;;5074322;28;20075;-77
2021/04/30 11:19:12;;;;;;;1.67;0.60;;;17.70;82.00;;;;;;5074362;28;20577;-76
2021/04/30 11:21:50;;;;;;;0.75;0.70;;;17.20;81.20;;;;;;5073581;28;20036;-76
2021/04/30 11:24:28;;;;;;;1.45;0.60;;;17.40;84.10;;;;;;5073708;28;20032;-76
2021/04/30 11:27:12;;;;;;;0.75;0.65;;;17.40;85.40;;;;;;5074075;28;20043;-76
2021/04/30 11:29:41;;;;;;;0.90;0.90;;;17.00;83.60;;;;;;5074119;28;20032;-76
2021/04/30 11:32:23;;;;;;;0.85;0.80;;;17.00;88.10;;;;;;5073997;28;20041;-77
2021/04/30 11:34:52;;;;;;;1.00;0.90;;;16.90;88.10;;;;;;5072327;28;20102;-76
2021/04/30 11:37:20;;;;;;;0.70;0.70;;;16.60;87.80;;;;;;5072263;28;20040;-77
2021/04/30 11:39:47;;;;;;;1.25;0.80;;;16.70;89.30;;;;;;5071919;28;20032;-76
2021/04/30 11:42:14;;;;;;;1.67;0.63;;;16.80;88.90;;;;;;5072190;28;20052;-77
2021/04/30 11:44:43;;;;;;;1.00;0.70;;;16.70;87.80;;;;;;5070875;28;20086;-76
2021/04/30 11:47:15;;;;;;;0.80;0.70;;;16.90;89.80;;;;;;5073612;28;20043;-76
2021/04/30 11:49:41;;;;;;;0.75;0.52;;;17.20;88.20;;;;;;5073505;28;20032;-76
2021/04/30 11:52:12;;;;;;;0.93;0.70;;;17.70;84.30;;;;;;5072083;28;20051;-76
2021/04/30 11:54:40;;;;;;;1.20;1.10;;;18.10;83.70;;;;;;5073267;28;20093;-76
2021/04/30 11:57:11;;;;;;;1.40;0.90;;;18.00;84.70;;;;;;5075252;28;20124;-76
2021/04/30 11:59:38;;;;;;;0.85;0.75;;;17.90;82.00;;;;;;5077734;28;20043;-76
2021/04/30 12:02:07;;;;;;;0.90;0.70;;;18.00;84.70;;;;;;5077766;28;20074;-76
2021/04/30 12:04:47;;;;;;;1.25;1.13;;;17.90;83.60;;;;;;5076997;28;20565;-76
2021/04/30 12:07:17;;;;;;;2.20;1.27;;;17.70;86.10;;;;;;5077270;28;20036;-76
2021/04/30 12:09:44;;;;;;;1.30;1.17;;;17.30;87.10;;;;;;5077240;28;20028;-76
2021/04/30 12:12:13;;;;;;;1.77;1.20;;;17.40;88.40;;;;;;5077435;28;20395;-76
2021/04/30 12:15:18;;;;;;;0.80;0.80;;;17.20;90.80;;;;;;5076778;28;20572;-77
2021/04/30 12:17:47;;;;;;;0.80;0.80;;;17.20;86.90;;;;;;5055076;28;20048;-76
2021/04/30 12:20:19;;;;;;;1.63;0.70;;;17.40;84.10;;;;;;5076205;28;20451;-76
2021/04/30 12:22:53;;;;;;;1.58;0.70;;;17.50;82.80;;;;;;5077020;28;20605;-76
2021/04/30 12:25:26;;;;;;;0.57;0.57;;;17.60;82.40;;;;;;5076610;28;20507;-76
2021/04/30 12:27:53;;;;;;;2.08;0.90;;;18.30;82.50;;;;;;4994855;28;20050;-76
2021/04/30 12:30:31;;;;;;;2.38;1.17;;;18.20;82.80;;;;;;4997596;28;20034;-76
2021/04/30 12:32:58;;;;;;;1.17;0.70;;;17.90;80.10;;;;;;4997851;28;20049;-76
2021/04/30 12:35:25;;;;;;;3.80;0.93;;;18.00;80.60;;;;;;4997682;28;20081;-76
2021/04/30 12:37:52;;;;;;;1.80;0.90;;;17.90;79.80;;;;;;4997722;28;20050;-76
2021/04/30 12:40:28;;;;;;;0.77;0.70;;;18.20;81.50;;;;;;4998008;28;20066;-75
2021/04/30 12:42:55;;;;;;;1.88;0.60;;;18.50;79.00;;;;;;4997572;28;20038;-76
2021/04/30 12:45:22;;;;;;;3.13;1.02;;;18.20;77.60;;;;;;4997511;28;20116;-76
2021/04/30 12:47:52;;;;;;;2.47;0.65;;;18.00;81.10;;;;;;4997631;28;20046;-76
2021/04/30 12:50:20;;;;;;;1.45;0.80;;;17.80;81.30;;;;;;4997685;28;20045;-76